This is the latest recevied weather packets stored in our database for station/object E27EKO-13. If no packets are shown the sender has not sent any weather packets the latest 10 day(s).
| Time | Temp. | Humidity | Pressure | Rain* | Wind** | Luminosity | Snow |
|---|---|---|---|---|---|---|---|
| 1787895032 | 38.89° C | 49% | 1007 hPa | - | - | 0 W/m² | - |
| 1787894710 | 38.89° C | 50% | 1007 hPa | - | - | 0 W/m² | - |
| 1787894388 | 38.89° C | 50% | 1007 hPa | - | - | 0 W/m² | - |
| 1787894066 | 38.89° C | 50% | 1007 hPa | - | - | 0 W/m² | - |
| 1787893744 | 39.44° C | 50% | 1008 hPa | - | - | 0 W/m² | - |
| 1787893422 | 39.44° C | 49% | 1008 hPa | - | - | 0 W/m² | - |
| 1787893100 | 38.89° C | 51% | 1008 hPa | - | - | 0 W/m² | - |
| 1787892933 | 38.89° C | 51% | 1008 hPa | - | - | 0 W/m² | - |
| 1787892610 | 38.89° C | 52% | 1008 hPa | - | - | 0 W/m² | - |
| 1787892288 | 38.33° C | 52% | 1008 hPa | - | - | 0 W/m² | - |
| 1787891966 | 38.33° C | 52% | 1008 hPa | - | - | 0 W/m² | - |
| 1787891645 | 38.89° C | 52% | 1008 hPa | - | - | 0 W/m² | - |
| 1787891322 | 38.89° C | 51% | 1008 hPa | - | - | 0 W/m² | - |
| 1787891000 | 39.44° C | 50% | 1008 hPa | - | - | 0 W/m² | - |
| 1787890809 | 39.44° C | 50% | 1008 hPa | - | - | 0 W/m² | - |
| 1787890485 | 39.44° C | 50% | 1008 hPa | - | - | 0 W/m² | - |
| 1787890163 | 38.89° C | 51% | 1008 hPa | - | - | 0 W/m² | - |
| 1787889841 | 38.33° C | 51% | 1009 hPa | - | - | 0 W/m² | - |
| 1787889519 | 38.89° C | 50% | 1009 hPa | - | - | 0 W/m² | - |
| 1787889197 | 39.44° C | 49% | 1009 hPa | - | - | 0 W/m² | - |
| 1787888875 | 39.44° C | 50% | 1009 hPa | - | - | 0 W/m² | - |
| 1787888553 | 38.89° C | 50% | 1009 hPa | - | - | 0 W/m² | - |
| 1787888231 | 38.89° C | 51% | 1009 hPa | - | - | 0 W/m² | - |
| 1787861071 | 31.11° C | 76% | 1006 hPa | - | - | 0 W/m² | - |
| 1787860749 | 31.11° C | 72% | 1006 hPa | - | - | 0 W/m² | - |
* Rain since midnight (hover to see other rain measurements)
** Current wind speed in m/s (hover to see current wind gust speed)